createdAt,value
2022-11-14T00:02:39.436Z,4.30
2022-11-14T00:05:24.894Z,4.20
2022-11-14T00:08:29.192Z,4.30
2022-11-14T00:11:14.856Z,4.20
2022-11-14T00:14:00.713Z,4.20
2022-11-14T00:16:47.599Z,4.20
2022-11-14T00:19:33.692Z,4.20
2022-11-14T00:22:19.507Z,4.20
2022-11-14T00:25:05.477Z,4.20
2022-11-14T00:27:51.354Z,4.20
2022-11-14T00:30:36.794Z,4.20
2022-11-14T00:33:22.981Z,4.20
2022-11-14T00:36:08.687Z,4.10
2022-11-14T00:38:55.165Z,4.10
2022-11-14T00:41:41.547Z,4.10
2022-11-14T00:44:27.046Z,4.20
2022-11-14T00:47:12.524Z,4.10
2022-11-14T00:49:57.792Z,4.10
2022-11-14T00:52:43.332Z,4.20
2022-11-14T00:55:29.425Z,4.20
2022-11-14T00:58:15.143Z,4.10
2022-11-14T01:01:01.090Z,4.10
2022-11-14T01:03:51.537Z,4.10
2022-11-14T01:06:37.088Z,4.20
2022-11-14T01:09:23.154Z,4.10
2022-11-14T01:12:08.994Z,4.20
2022-11-14T01:14:54.978Z,4.10
2022-11-14T01:17:40.252Z,4.10
2022-11-14T01:20:25.855Z,4.10
2022-11-14T01:23:13.065Z,4.20
2022-11-14T01:26:03.937Z,4.20
2022-11-14T01:28:49.796Z,4.10
2022-11-14T01:31:35.283Z,4.20
2022-11-14T01:34:21.333Z,4.20
2022-11-14T01:37:07.192Z,4.20
2022-11-14T01:39:52.715Z,4.20
2022-11-14T01:42:38.099Z,4.20
2022-11-14T01:45:42.679Z,4.20
2022-11-14T01:48:35.681Z,4.20
2022-11-14T01:51:46.215Z,4.00
2022-11-14T01:54:38.376Z,4.00
2022-11-14T01:57:31.058Z,4.00
2022-11-14T02:00:17.003Z,4.00
2022-11-14T02:03:04.127Z,4.00
2022-11-14T02:05:50.563Z,4.00
2022-11-14T02:08:37.309Z,4.10
2022-11-14T02:11:23.291Z,4.10
2022-11-14T02:14:08.824Z,4.10
2022-11-14T02:17:14.867Z,4.00
2022-11-14T02:20:05.332Z,4.00
2022-11-14T02:22:51.454Z,4.00
2022-11-14T02:25:37.400Z,4.00
2022-11-14T02:28:23.426Z,4.10
2022-11-14T02:31:09.208Z,4.00
2022-11-14T02:33:55.022Z,4.00
2022-11-14T02:36:40.701Z,4.00
2022-11-14T02:39:26.695Z,4.00
2022-11-14T02:42:12.180Z,4.00
2022-11-14T02:44:57.828Z,4.10
2022-11-14T02:47:43.407Z,4.10
2022-11-14T02:50:29.639Z,4.20
2022-11-14T02:53:15.587Z,4.10
2022-11-14T02:56:01.450Z,4.10
2022-11-14T02:58:47.137Z,4.10
2022-11-14T03:01:33.097Z,4.10
2022-11-14T03:04:18.823Z,4.10
2022-11-14T03:07:04.865Z,4.10
2022-11-14T03:09:50.678Z,4.10
2022-11-14T03:12:36.793Z,4.10
2022-11-14T03:15:23.114Z,4.20
2022-11-14T03:18:08.870Z,4.20
2022-11-14T03:20:54.327Z,4.10
2022-11-14T03:23:40.618Z,4.20
2022-11-14T03:26:26.181Z,4.10
2022-11-14T03:29:12.030Z,4.20
2022-11-14T03:31:57.571Z,4.20
2022-11-14T03:34:43.187Z,4.10
2022-11-14T03:37:28.826Z,4.10
2022-11-14T03:40:14.715Z,4.20
2022-11-14T03:43:00.569Z,4.10
2022-11-14T03:45:47.006Z,4.20
2022-11-14T03:48:33.045Z,4.20
2022-11-14T03:51:18.901Z,4.20
2022-11-14T03:54:04.768Z,4.20
2022-11-14T03:56:50.673Z,4.30
2022-11-14T03:59:36.505Z,4.30
2022-11-14T04:02:22.293Z,4.40
2022-11-14T04:05:08.686Z,4.40
2022-11-14T04:07:54.360Z,4.50
2022-11-14T04:10:41.418Z,4.40
2022-11-14T04:13:27.112Z,4.40
2022-11-14T04:16:12.832Z,4.40
2022-11-14T04:18:57.986Z,4.40
2022-11-14T04:21:43.854Z,4.50
2022-11-14T04:24:29.441Z,4.50
2022-11-14T04:27:15.308Z,4.50
2022-11-14T04:30:00.808Z,4.50
2022-11-14T04:32:48.036Z,4.60
2022-11-14T04:35:33.304Z,4.50
2022-11-14T04:38:18.904Z,4.20
2022-11-14T04:41:04.947Z,4.60
2022-11-14T04:43:51.165Z,4.50
2022-11-14T04:46:36.605Z,4.50
2022-11-14T04:49:23.194Z,4.50
2022-11-14T04:52:08.749Z,4.60
2022-11-14T04:54:54.462Z,4.60
2022-11-14T04:57:40.362Z,4.60
2022-11-14T05:00:27.435Z,4.60
2022-11-14T05:03:12.989Z,4.70
2022-11-14T05:06:01.427Z,4.70
2022-11-14T05:08:48.596Z,4.70
2022-11-14T05:11:34.265Z,4.70
2022-11-14T05:14:19.514Z,4.70
2022-11-14T05:17:05.332Z,4.60
2022-11-14T05:19:51.342Z,4.70
2022-11-14T05:22:36.955Z,4.70
2022-11-14T05:25:23.578Z,4.60
2022-11-14T05:28:09.153Z,4.60
2022-11-14T05:31:02.398Z,4.60
2022-11-14T05:33:48.243Z,4.70
2022-11-14T05:36:33.874Z,4.70
2022-11-14T05:39:19.921Z,4.70
2022-11-14T05:42:06.413Z,4.80
2022-11-14T05:44:52.386Z,4.70
2022-11-14T05:47:38.274Z,4.80
2022-11-14T05:50:23.855Z,4.70
2022-11-14T05:53:09.259Z,4.70
2022-11-14T05:55:55.565Z,4.70
2022-11-14T05:58:41.513Z,4.70
2022-11-14T06:01:28.172Z,4.80
2022-11-14T06:04:15.548Z,4.70
2022-11-14T06:07:01.117Z,4.60
2022-11-14T06:09:46.987Z,4.60
2022-11-14T06:12:32.748Z,4.70
2022-11-14T06:15:19.024Z,4.70
2022-11-14T06:18:04.792Z,4.70
2022-11-14T06:20:51.947Z,4.70
2022-11-14T06:23:37.774Z,4.80
2022-11-14T06:26:31.660Z,4.80
2022-11-14T06:29:17.284Z,4.70
2022-11-14T06:32:04.147Z,4.70
2022-11-14T06:34:49.434Z,4.80
2022-11-14T06:37:37.478Z,4.80
2022-11-14T06:40:23.264Z,4.80
2022-11-14T06:43:09.171Z,4.80
2022-11-14T06:45:56.058Z,4.80
2022-11-14T06:48:43.033Z,4.80
2022-11-14T06:51:28.871Z,4.80
2022-11-14T06:54:14.307Z,4.80
2022-11-14T09:31:56.042Z,5.80
2022-11-14T11:20:46.343Z,7.30
2022-11-14T11:32:53.778Z,7.60
2022-11-14T11:35:41.898Z,7.80
2022-11-14T11:38:31.514Z,7.80
2022-11-14T11:44:19.904Z,7.80
2022-11-14T11:50:04.324Z,7.90
2022-11-14T11:53:13.288Z,7.80
2022-11-14T11:56:11.853Z,7.70
2022-11-14T12:02:27.323Z,7.90
2022-11-14T12:14:25.808Z,7.90
2022-11-14T12:17:35.377Z,8.00
2022-11-14T12:20:33.945Z,8.10
2022-11-14T12:26:47.681Z,8.10
2022-11-14T12:30:02.858Z,8.20
2022-11-14T12:42:25.083Z,8.40
2022-11-14T12:45:29.955Z,8.50
2022-11-14T12:51:41.463Z,8.60
2022-11-14T12:57:49.868Z,8.70
2022-11-14T13:13:06.383Z,8.80
2022-11-14T13:22:12.364Z,8.70
2022-11-14T13:25:01.794Z,8.60
2022-11-14T13:28:07.081Z,8.70
2022-11-14T13:38:25.389Z,8.80
2022-11-14T13:41:46.617Z,8.80
2022-11-14T13:48:14.476Z,8.70
2022-11-14T13:51:15.613Z,8.60
2022-11-14T13:54:18.511Z,8.70
2022-11-14T13:57:13.018Z,8.80
2022-11-14T14:00:19.564Z,8.70
2022-11-14T15:10:06.293Z,7.90
2022-11-14T15:16:01.256Z,7.90
2022-11-14T15:24:33.066Z,7.90
2022-11-14T15:27:24.606Z,7.60
2022-11-14T15:33:32.492Z,7.80
2022-11-14T15:36:19.315Z,7.70
2022-11-14T15:39:29.423Z,7.70
2022-11-14T15:54:53.106Z,7.60
2022-11-14T15:57:40.599Z,6.70
2022-11-14T16:00:28.095Z,7.50
2022-11-14T16:03:22.067Z,6.70
2022-11-14T16:18:19.613Z,7.30
2022-11-14T16:21:05.633Z,7.20
2022-11-14T16:23:51.562Z,7.20
2022-11-14T16:26:38.494Z,7.20
2022-11-14T16:29:25.223Z,7.10
2022-11-14T16:32:15.668Z,7.10
2022-11-14T16:35:01.004Z,7.10
2022-11-14T16:37:47.464Z,7.10
2022-11-14T16:40:33.185Z,7.10
2022-11-14T16:43:29.847Z,7.10
2022-11-14T16:46:16.159Z,7.10
2022-11-14T16:49:02.218Z,7.10
2022-11-14T16:51:50.440Z,7.10
2022-11-14T16:54:36.887Z,7.00
2022-11-14T16:57:23.094Z,7.00
2022-11-14T17:00:11.403Z,7.00
2022-11-14T17:02:57.218Z,7.00
2022-11-14T17:05:52.330Z,6.90
2022-11-14T17:08:38.804Z,6.80
2022-11-14T17:11:26.021Z,6.90
2022-11-14T17:14:12.021Z,6.80
2022-11-14T17:17:05.225Z,6.80
2022-11-14T17:19:51.116Z,6.70
2022-11-14T17:22:40.571Z,6.70
2022-11-14T17:25:26.734Z,6.70
2022-11-14T17:28:12.706Z,6.70
2022-11-14T17:31:00.850Z,6.70
2022-11-14T17:33:52.987Z,6.60
2022-11-14T17:36:38.641Z,6.60
2022-11-14T17:39:24.695Z,6.60
2022-11-14T17:42:10.656Z,6.60
2022-11-14T17:45:53.007Z,6.60
2022-11-14T17:48:38.968Z,6.50
2022-11-14T17:51:27.524Z,6.50
2022-11-14T17:54:13.463Z,6.50
2022-11-14T17:57:01.766Z,6.50
2022-11-14T17:59:47.694Z,6.50
2022-11-14T18:02:33.707Z,6.50
2022-11-14T18:05:19.632Z,6.50
2022-11-14T18:08:08.585Z,6.50
2022-11-14T18:10:55.197Z,6.50
2022-11-14T18:13:46.508Z,6.50
2022-11-14T18:16:57.404Z,6.50
2022-11-14T18:24:14.188Z,6.50
2022-11-14T18:26:59.781Z,6.50
2022-11-14T18:30:39.927Z,6.50
2022-11-14T18:33:19.684Z,6.50
2022-11-14T18:36:09.155Z,6.60
2022-11-14T18:38:57.042Z,6.50
2022-11-14T18:41:42.971Z,6.50
2022-11-14T18:44:29.154Z,6.50
2022-11-14T18:47:41.432Z,6.50
2022-11-14T18:50:26.856Z,6.40
2022-11-14T18:53:12.698Z,6.40
2022-11-14T18:55:58.892Z,6.40
2022-11-14T18:58:56.896Z,6.40
2022-11-14T19:01:42.682Z,6.40
2022-11-14T19:04:31.112Z,6.40
2022-11-14T19:07:16.987Z,6.40
2022-11-14T19:10:03.504Z,6.40
2022-11-14T19:12:49.122Z,6.40
2022-11-14T19:15:35.708Z,6.30
2022-11-14T19:18:21.783Z,6.30
2022-11-14T19:21:07.607Z,6.30
2022-11-14T19:23:54.807Z,6.20
2022-11-14T19:26:50.795Z,6.20
2022-11-14T19:29:36.920Z,6.20
2022-11-14T19:32:34.552Z,6.20
2022-11-14T19:35:20.858Z,6.10
2022-11-14T19:38:09.419Z,6.00
2022-11-14T19:40:55.370Z,6.00
2022-11-14T19:43:43.531Z,6.00
2022-11-14T19:51:02.250Z,5.90
2022-11-14T19:54:02.372Z,5.90
2022-11-14T19:56:48.083Z,5.90
2022-11-14T19:59:35.518Z,5.90
2022-11-14T20:02:21.446Z,5.90
2022-11-14T20:05:08.253Z,5.90
2022-11-14T20:07:54.367Z,5.90
2022-11-14T20:10:47.846Z,5.80
2022-11-14T20:13:36.584Z,5.70
2022-11-14T20:16:25.728Z,5.70
2022-11-14T20:19:11.984Z,5.70
2022-11-14T20:22:01.536Z,5.70
2022-11-14T20:24:47.412Z,5.50
2022-11-14T20:27:41.455Z,5.50
2022-11-14T20:30:27.216Z,5.60
2022-11-14T20:33:30.164Z,5.50
2022-11-14T20:36:24.091Z,5.40
2022-11-14T20:39:10.032Z,5.50
2022-11-14T20:41:55.781Z,5.40
2022-11-14T20:44:43.413Z,5.40
2022-11-14T20:47:29.715Z,5.40
2022-11-14T20:50:15.540Z,5.30
2022-11-14T20:53:01.316Z,5.30
2022-11-14T20:55:54.405Z,5.30
2022-11-14T20:58:41.491Z,5.20
2022-11-14T21:01:27.342Z,5.20
2022-11-14T21:04:13.068Z,5.20
2022-11-14T21:07:33.549Z,5.20
2022-11-14T21:10:37.994Z,5.20
2022-11-14T21:14:28.390Z,5.10
2022-11-14T21:17:14.434Z,5.00
2022-11-14T21:20:25.108Z,5.00
2022-11-14T21:23:10.640Z,5.00
2022-11-14T21:26:48.908Z,5.00
2022-11-14T21:29:34.618Z,5.00
2022-11-14T21:32:36.419Z,4.90
2022-11-14T21:35:22.197Z,4.80
2022-11-14T21:39:13.811Z,4.80
2022-11-14T21:41:59.630Z,4.80
2022-11-14T21:45:36.762Z,4.70
2022-11-14T21:48:22.614Z,4.80
2022-11-14T21:55:23.694Z,4.70
2022-11-14T21:58:09.449Z,4.70
2022-11-14T22:00:55.124Z,4.80
2022-11-14T22:08:01.766Z,4.70
2022-11-14T22:11:01.420Z,4.70
2022-11-14T22:13:47.025Z,4.70
2022-11-14T22:16:36.005Z,4.70
2022-11-14T22:19:21.867Z,4.70
2022-11-14T22:22:08.409Z,4.70
2022-11-14T22:24:53.917Z,4.70
2022-11-14T22:27:39.711Z,4.70
2022-11-14T22:30:25.521Z,4.70
2022-11-14T22:33:15.302Z,4.70
2022-11-14T22:36:09.737Z,4.70
2022-11-14T22:38:57.002Z,4.70
2022-11-14T22:41:42.889Z,4.70
2022-11-14T22:44:28.472Z,4.70
2022-11-14T22:47:14.036Z,4.60
2022-11-14T22:50:09.988Z,4.60
2022-11-14T22:52:56.001Z,4.70
2022-11-14T22:55:48.847Z,4.60
2022-11-14T22:58:39.821Z,4.60
2022-11-14T23:05:47.596Z,4.60
2022-11-14T23:08:34.080Z,4.60
2022-11-14T23:11:27.886Z,4.60
2022-11-14T23:14:14.516Z,4.60
2022-11-14T23:17:00.332Z,4.70
2022-11-14T23:19:46.255Z,4.60
2022-11-14T23:23:37.373Z,4.60
2022-11-14T23:26:23.889Z,4.50
2022-11-14T23:29:14.070Z,4.50
2022-11-14T23:32:00.032Z,4.50
2022-11-14T23:35:12.890Z,4.60
2022-11-14T23:38:03.947Z,4.50
2022-11-14T23:40:58.890Z,4.50
2022-11-14T23:52:27.394Z,4.50
2022-11-14T23:55:13.304Z,4.50
2022-11-14T23:57:59.530Z,4.40
